Time;durP1;ratioP1;P1;durP2;ratioP2;P2;SDS_P1;SDS_P2;PMS_P1;PMS_P2;Temp;Humidity;BMP_temperature;BMP_pressure;BME280_temperature;BME280_humidity;BME280_pressure;Samples;Min_cycle;Max_cycle;Signal;HPM_P1;HPM_P2
2023/03/25 00:02:07;;;;;;;;;;;;;;;-144.73;92.89;54514.44;6214526;23;19908;-70
2023/03/25 00:04:34;;;;;;;;;;;;;;;-144.73;91.96;54465.16;6187483;23;19908;-70
2023/03/25 00:06:59;;;;;;;;;;;;;;;-144.73;93.50;54481.59;6188200;23;19904;-70
2023/03/25 00:09:24;;;;;;;;;;;;;;;-144.73;93.13;54459.00;6187272;23;19915;-70
2023/03/25 00:11:50;;;;;;;;;;;;;;;-144.73;93.72;54510.31;6188248;23;19954;-71
2023/03/25 00:14:16;;;;;;;;;;;;;;;-144.73;94.44;54489.81;6213209;23;19907;-72
2023/03/25 00:16:41;;;;;;;;;;;;;;;-144.73;94.32;54493.91;6188286;23;19931;-71
2023/03/25 00:19:08;;;;;;;;;;;;;;;-144.73;94.12;54461.06;6187666;23;19908;-72
2023/03/25 00:21:34;;;;;;;;;;;;;;;-144.73;94.42;54522.63;6214289;23;20347;-71
2023/03/25 00:23:59;;;;;;;;;;;;;;;-144.73;94.79;54502.13;6187377;23;19915;-71
2023/03/25 00:26:28;;;;;;;;;;;;;;;-144.73;94.45;54539.06;6188326;23;19904;-72
2023/03/25 00:28:54;;;;;;;;;;;;;;;-144.73;94.71;54456.97;6187451;23;19956;-72
2023/03/25 00:31:20;;;;;;;;;;;;;;;-144.73;94.23;54493.91;6187369;23;20307;-72
2023/03/25 00:33:45;;;;;;;;;;;;;;;-144.73;94.70;54489.81;6214047;23;19911;-71
2023/03/25 00:36:13;;;;;;;;;;;;;;;-144.73;94.78;54479.53;6214303;23;19987;-71
2023/03/25 00:38:40;;;;;;;;;;;;;;;-144.73;95.42;54567.81;6187382;23;19912;-71
2023/03/25 00:41:24;;;;;;;;;;;;;;;-144.73;95.11;54461.06;6187288;23;19908;-70
2023/03/25 00:43:53;;;;;;;;;;;;;;;-144.73;95.56;54516.47;6186681;23;19915;-71
2023/03/25 00:46:19;;;;;;;;;;;;;;;-144.73;95.31;54489.81;6187369;23;19904;-71
2023/03/25 00:48:44;;;;;;;;;;;;;;;-144.73;95.29;54604.75;6187483;23;19919;-71
2023/03/25 00:51:12;;;;;;;;;;;;;;;-144.73;95.51;54514.44;6187617;23;19910;-71
2023/03/25 00:53:38;;;;;;;;;;;;;;;-144.73;95.68;54522.63;6187183;23;19931;-71
2023/03/25 00:56:04;;;;;;;;;;;;;;;-144.73;95.16;54539.06;6213756;23;19904;-70
2023/03/25 00:58:29;;;;;;;;;;;;;;;-144.73;95.49;54524.69;6187231;23;20281;-70
2023/03/25 01:00:58;;;;;;;;;;;;;;;-144.73;95.57;54485.69;6186958;23;19987;-71
2023/03/25 01:03:24;;;;;;;;;;;;;;;-144.73;95.97;54506.22;6188506;23;19958;-71
2023/03/25 01:05:50;;;;;;;;;;;;;;;-144.73;95.67;54514.44;6214790;23;19966;-70
2023/03/25 01:08:16;;;;;;;;;;;;;;;-144.73;95.70;54493.91;6188840;23;19908;-70
2023/03/25 01:10:42;;;;;;;;;;;;;;;-144.73;95.54;54506.22;6188421;23;19904;-70
2023/03/25 01:13:07;;;;;;;;;;;;;;;-144.73;95.67;54487.75;6188455;23;20106;-69
2023/03/25 01:15:32;;;;;;;;;;;;;;;-144.73;95.72;54498.00;6214816;23;19910;-71
2023/03/25 01:17:58;;;;;;;;;;;;;;;-144.73;95.34;54539.06;6213136;23;19907;-71
2023/03/25 01:20:23;;;;;;;;;;;;;;;-144.73;94.99;54502.13;6188028;23;19911;-70
2023/03/25 01:22:48;;;;;;;;;;;;;;;-144.73;94.75;54516.47;6188412;23;19972;-70
2023/03/25 01:25:14;;;;;;;;;;;;;;;-144.73;94.10;54514.44;6212893;23;19935;-71
2023/03/25 01:27:39;;;;;;;;;;;;;;;-144.73;94.13;54498.00;6214115;23;19904;-70
2023/03/25 01:30:05;;;;;;;;;;;;;;;-144.73;93.92;54520.59;6212725;23;19912;-70
2023/03/25 01:32:31;;;;;;;;;;;;;;;-144.73;93.34;54491.84;6188530;23;19904;-70
2023/03/25 01:34:56;;;;;;;;;;;;;;;-144.73;93.42;54506.22;6214220;23;19982;-72
2023/03/25 01:37:24;;;;;;;;;;;;;;;-144.73;93.29;54504.16;6188296;23;19908;-71
2023/03/25 01:39:49;;;;;;;;;;;;;;;-144.73;93.02;54498.00;6188372;23;19912;-70
2023/03/25 01:42:15;;;;;;;;;;;;;;;-144.73;92.86;54510.31;6215163;23;19907;-70
2023/03/25 01:44:43;;;;;;;;;;;;;;;-144.73;92.34;54524.69;6214288;23;19915;-71
2023/03/25 01:47:08;;;;;;;;;;;;;;;-144.73;92.48;54514.44;6189305;23;20033;-70
2023/03/25 01:49:39;;;;;;;;;;;;;;;-144.73;91.98;54514.44;6188000;23;19934;-71
2023/03/25 01:52:08;;;;;;;;;;;;;;;-144.73;91.32;54493.91;6189015;23;19939;-71
2023/03/25 01:54:34;;;;;;;;;;;;;;;-144.73;91.13;54539.06;6188412;23;19912;-70
2023/03/25 01:56:59;;;;;;;;;;;;;;;-144.73;91.46;54504.16;6189165;23;19904;-71
2023/03/25 01:59:27;;;;;;;;;;;;;;;-144.73;91.52;54495.97;6188052;23;19946;-70
2023/03/25 02:01:54;;;;;;;;;;;;;;;-144.73;91.93;54506.22;6214024;23;19907;-71
2023/03/25 02:04:57;;;;;;;;;;;;;;;-144.73;92.07;54506.22;6188554;23;20327;-71
2023/03/25 02:07:29;;;;;;;;;;;;;;;-144.73;92.01;54477.47;6139207;23;19910;-70
2023/03/25 02:09:59;;;;;;;;;;;;;;;-144.73;92.43;54516.47;6186559;23;19914;-71
2023/03/25 02:12:24;;;;;;;;;;;;;;;-144.73;91.92;54493.91;6186987;23;19911;-72
2023/03/25 02:14:50;;;;;;;;;;;;;;;-144.73;91.86;54473.38;6212222;23;19915;-72
2023/03/25 02:17:15;;;;;;;;;;;;;;;-144.73;91.78;54514.44;6186689;23;19926;-72
2023/03/25 02:19:41;;;;;;;;;;;;;;;-144.73;91.78;54604.75;6185328;23;19907;-71
2023/03/25 02:22:24;;;;;;;;;;;;;;;-144.73;91.73;54524.69;6212956;23;19915;-71
2023/03/25 02:25:00;;;;;;;;;;;;;;;-144.73;91.82;54481.59;6212149;23;19915;-71
2023/03/25 02:27:32;;;;;;;;;;;;;;;-144.73;91.45;54456.97;6186214;23;20426;-71
2023/03/25 02:29:57;;;;;;;;;;;;;;;-144.73;90.80;54508.28;6185672;23;19912;-70
2023/03/25 02:32:42;;;;;;;;;;;;;;;-144.73;90.74;54489.81;6212984;23;19951;-71
2023/03/25 02:35:15;;;;;;;;;;;;;;;-144.73;90.99;54502.13;6212166;23;19908;-71
2023/03/25 02:37:45;;;;;;;;;;;;;;;-144.73;91.00;54502.13;6186708;23;20302;-72
2023/03/25 02:40:25;;;;;;;;;;;;;;;-144.73;91.32;54522.63;6186014;23;19935;-72
2023/03/25 02:42:52;;;;;;;;;;;;;;;-144.73;91.00;54498.00;6187123;23;19946;-72
2023/03/25 02:45:22;;;;;;;;;;;;;;;-144.73;91.46;54500.06;6211051;23;19908;-70
2023/03/25 02:47:50;;;;;;;;;;;;;;;-144.73;91.76;54506.22;6212950;23;19946;-71
2023/03/25 02:50:20;;;;;;;;;;;;;;;-144.73;91.22;54526.75;6210644;23;19998;-71
2023/03/25 02:52:52;;;;;;;;;;;;;;;-144.73;91.33;54539.06;6213601;23;19904;-72
2023/03/25 02:55:19;;;;;;;;;;;;;;;-144.73;91.79;54500.06;6185974;23;19915;-71
2023/03/25 02:57:46;;;;;;;;;;;;;;;-144.73;91.68;54473.38;6186044;23;19923;-71
2023/03/25 03:00:16;;;;;;;;;;;;;;;-144.73;91.67;54526.75;6184985;23;19911;-72
2023/03/25 03:03:01;;;;;;;;;;;;;;;-144.73;92.03;54539.06;6186268;23;19950;-71
2023/03/25 03:05:28;;;;;;;;;;;;;;;-144.73;92.00;54448.75;6186251;23;20220;-71
2023/03/25 03:08:08;;;;;;;;;;;;;;;-144.73;92.05;54498.00;6185403;23;19935;-71
2023/03/25 03:10:40;;;;;;;;;;;;;;;-144.73;91.57;54512.38;6186391;23;19900;-71
2023/03/25 03:13:11;;;;;;;;;;;;;;;-144.73;91.91;54473.38;6185758;23;19983;-71
2023/03/25 03:15:45;;;;;;;;;;;;;;;-144.73;91.91;54518.53;6214422;23;19904;-71
2023/03/25 03:18:16;;;;;;;;;;;;;;;-144.73;91.92;54522.63;6212372;23;19935;-71
2023/03/25 03:20:54;;;;;;;;;;;;;;;-144.73;91.66;54510.31;6187498;23;19912;-71
2023/03/25 03:23:25;;;;;;;;;;;;;;;-144.73;91.76;54504.16;6214163;23;19931;-71
2023/03/25 03:25:54;;;;;;;;;;;;;;;-144.73;91.43;54514.44;6210988;23;19953;-71
2023/03/25 03:28:24;;;;;;;;;;;;;;;-144.73;91.58;54506.22;6213662;23;19970;-70
2023/03/25 03:30:57;;;;;;;;;;;;;;;-144.73;91.35;54493.91;6212583;23;19931;-72
2023/03/25 03:33:34;;;;;;;;;;;;;;;-144.73;91.23;54487.75;6187345;23;19914;-71
2023/03/25 03:36:01;;;;;;;;;;;;;;;-144.73;90.59;54514.44;6212946;23;19925;-71
2023/03/25 03:38:34;;;;;;;;;;;;;;;-144.73;91.07;54514.44;6187609;23;19978;-71
2023/03/25 03:41:03;;;;;;;;;;;;;;;-144.73;90.69;54522.63;6187590;23;19911;-71
2023/03/25 03:43:44;;;;;;;;;;;;;;;-144.73;91.37;54469.28;6187224;23;19908;-71
2023/03/25 03:46:15;;;;;;;;;;;;;;;-144.73;91.50;54512.38;6187148;23;19915;-71
2023/03/25 03:48:43;;;;;;;;;;;;;;;-144.73;91.29;54498.00;6187326;23;19915;-72
2023/03/25 03:51:11;;;;;;;;;;;;;;;-144.73;91.12;54502.13;6214022;23;19912;-71
2023/03/25 03:53:41;;;;;;;;;;;;;;;-144.73;91.22;54473.38;6187528;23;19908;-71
2023/03/25 03:56:10;;;;;;;;;;;;;;;-144.73;91.04;54518.53;6213517;23;19904;-71
2023/03/25 03:58:37;;;;;;;;;;;;;;;-144.73;91.20;54520.59;6213917;23;20286;-71
2023/03/25 04:01:08;;;;;;;;;;;;;;;-144.73;91.53;54473.38;6213933;23;19962;-71
2023/03/25 04:03:39;;;;;;;;;;;;;;;-144.73;91.17;54539.06;6187465;23;19927;-72
2023/03/25 04:06:12;;;;;;;;;;;;;;;-144.73;90.95;54506.22;6213665;23;20270;-72
2023/03/25 04:08:41;;;;;;;;;;;;;;;-144.73;91.12;54518.53;6187240;23;20003;-69
2023/03/25 04:11:10;;;;;;;;;;;;;;;-144.73;91.54;54469.28;6187464;23;20269;-70
2023/03/25 04:13:37;;;;;;;;;;;;;;;-144.73;91.07;54522.63;6187171;23;19915;-70
2023/03/25 04:16:02;;;;;;;;;;;;;;;-144.73;91.51;54514.44;6186926;23;19911;-70
2023/03/25 04:18:27;;;;;;;;;;;;;;;-144.73;91.79;54506.22;6187240;23;19911;-70
2023/03/25 04:20:54;;;;;;;;;;;;;;;-144.73;91.73;54461.06;6187110;23;19908;-72
2023/03/25 04:23:20;;;;;;;;;;;;;;;-144.73;91.10;54543.16;6187376;23;19915;-72
2023/03/25 04:25:54;;;;;;;;;;;;;;;-144.73;91.25;54473.38;6187069;23;19904;-71
2023/03/25 04:28:20;;;;;;;;;;;;;;;-144.73;91.21;54547.28;6186093;23;19908;-71
2023/03/25 04:30:47;;;;;;;;;;;;;;;-144.73;90.85;54477.47;6213322;23;19915;-70
2023/03/25 04:33:13;;;;;;;;;;;;;;;-144.73;91.07;54498.00;6187016;23;20025;-70
2023/03/25 04:35:39;;;;;;;;;;;;;;;-144.73;91.28;54489.81;6187213;23;20318;-70
2023/03/25 04:38:04;;;;;;;;;;;;;;;-144.73;91.30;54520.59;6186585;23;19910;-70
2023/03/25 04:40:30;;;;;;;;;;;;;;;-144.73;91.09;54498.00;6187043;23;19908;-71
2023/03/25 04:42:56;;;;;;;;;;;;;;;-144.73;91.23;54506.22;6213696;23;19904;-71
2023/03/25 04:45:24;;;;;;;;;;;;;;;-144.73;91.27;54502.13;6186658;23;20007;-71
2023/03/25 04:47:52;;;;;;;;;;;;;;;-144.73;92.53;54481.59;6188007;23;19908;-71
2023/03/25 04:50:28;;;;;;;;;;;;;;;-144.73;94.86;54526.75;6185822;23;20246;-72
2023/03/25 04:52:56;;;;;;;;;;;;;;;-144.73;96.76;54551.38;6186931;23;19926;-75
2023/03/25 04:55:21;;;;;;;;;;;;;;;-144.73;98.29;54514.44;6187144;23;19900;-76
2023/03/25 04:57:47;;;;;;;;;;;;;;;-144.73;99.06;54489.81;6188271;23;19947;-77
2023/03/25 05:00:14;;;;;;;;;;;;;;;-144.73;100.00;54526.75;6187702;23;19918;-76
2023/03/25 05:02:46;;;;;;;;;;;;;;;-144.73;100.00;54522.63;6188631;23;19914;-77
2023/03/25 05:05:17;;;;;;;;;;;;;;;-144.73;100.00;54547.28;6186290;23;19919;-76
2023/03/25 05:07:44;;;;;;;;;;;;;;;-144.73;100.00;54485.69;6187547;23;19904;-76
2023/03/25 05:10:10;;;;;;;;;;;;;;;-144.73;100.00;54456.97;6186364;23;19911;-76
2023/03/25 05:12:35;;;;;;;;;;;;;;;-144.73;100.00;54506.22;6187538;23;19911;-77
2023/03/25 05:15:00;;;;;;;;;;;;;;;-144.73;100.00;54539.06;6211544;23;19918;-77
2023/03/25 05:17:25;;;;;;;;;;;;;;;-144.73;100.00;54539.06;6189144;23;19908;-77
2023/03/25 05:19:51;;;;;;;;;;;;;;;-144.73;100.00;54498.00;6187261;23;19915;-76
2023/03/25 05:22:17;;;;;;;;;;;;;;;-144.73;100.00;54510.31;6187379;23;19911;-77
2023/03/25 05:24:43;;;;;;;;;;;;;;;-144.73;100.00;54498.00;6189201;23;20312;-77
2023/03/25 05:27:09;;;;;;;;;;;;;;;-144.73;100.00;54518.53;6192203;23;19914;-77
2023/03/25 05:29:34;;;;;;;;;;;;;;;-144.73;100.00;54489.81;6189971;23;19931;-77
2023/03/25 05:31:59;;;;;;;;;;;;;;;-144.73;100.00;54518.53;6193316;23;19904;-77
2023/03/25 05:34:28;;;;;;;;;;;;;;;-144.73;100.00;54506.22;6192429;23;19933;-77
2023/03/25 05:36:54;;;;;;;;;;;;;;;-144.73;100.00;54477.47;6188213;23;19904;-75
2023/03/25 05:39:19;;;;;;;;;;;;;;;-144.73;100.00;54504.16;6213073;23;19921;-76
2023/03/25 05:41:44;;;;;;;;;;;;;;;-144.73;100.00;54539.06;6187542;23;19908;-75
2023/03/25 05:44:13;;;;;;;;;;;;;;;-144.73;100.00;54489.81;6187473;23;19908;-77
2023/03/25 05:46:38;;;;;;;;;;;;;;;-144.73;100.00;54461.06;6188362;23;20238;-77
2023/03/25 05:49:04;;;;;;;;;;;;;;;-144.73;100.00;54530.84;6228404;23;19908;-78
2023/03/25 05:51:32;;;;;;;;;;;;;;;-144.73;100.00;54498.00;6199913;23;19934;-78
2023/03/25 05:53:58;;;;;;;;;;;;;;;-144.73;100.00;54510.31;6187853;23;19907;-78
2023/03/25 05:56:24;;;;;;;;;;;;;;;-144.73;100.00;54512.38;6188042;23;19965;-79
2023/03/25 05:58:50;;;;;;;;;;;;;;;-144.73;100.00;54506.22;6186781;23;19978;-78
2023/03/25 06:01:17;;;;;;;;;;;;;;;-144.73;100.00;54543.16;6186545;23;19908;-78
2023/03/25 06:03:43;;;;;;;;;;;;;;;-144.73;100.00;54530.84;6213028;23;20329;-77
2023/03/25 06:06:12;;;;;;;;;;;;;;;-144.73;100.00;54543.16;6185940;23;19970;-77
2023/03/25 06:08:57;;;;;;;;;;;;;;;-144.73;100.00;54506.22;6186337;23;19974;-77
2023/03/25 06:11:25;;;;;;;;;;;;;;;-144.73;100.00;54541.13;6187430;23;19915;-77
2023/03/25 06:13:50;;;;;;;;;;;;;;;-144.73;99.55;54506.22;6186669;23;19914;-75
2023/03/25 06:16:17;;;;;;;;;;;;;;;-144.73;100.00;54526.75;6211101;23;19935;-75
2023/03/25 06:18:49;;;;;;;;;;;;;;;-144.73;99.89;54506.22;6186225;23;19908;-75
2023/03/25 06:21:15;;;;;;;;;;;;;;;-144.73;99.85;54493.91;6186610;23;19908;-75
2023/03/25 06:23:41;;;;;;;;;;;;;;;-144.73;99.64;54547.28;6186777;23;19911;-74
2023/03/25 06:26:07;;;;;;;;;;;;;;;-144.73;99.87;54539.06;6186086;23;19962;-74
2023/03/25 06:28:33;;;;;;;;;;;;;;;-144.73;100.00;54514.44;6212038;23;19916;-74
2023/03/25 06:30:58;;;;;;;;;;;;;;;-144.73;100.00;54500.06;6186057;23;19912;-74
2023/03/25 06:33:23;;;;;;;;;;;;;;;-144.73;99.63;54514.44;6185949;23;19908;-74
2023/03/25 06:35:52;;;;;;;;;;;;;;;-144.73;99.81;54498.00;6185770;23;19907;-74
2023/03/25 06:38:18;;;;;;;;;;;;;;;-144.73;100.00;54498.00;6210632;23;20246;-74
2023/03/25 06:40:43;;;;;;;;;;;;;;;-144.73;100.00;54526.75;6185830;23;19950;-74
2023/03/25 06:43:09;;;;;;;;;;;;;;;-144.73;100.00;54539.06;6185947;23;19915;-75
2023/03/25 06:45:34;;;;;;;;;;;;;;;-144.73;100.00;54518.53;6186501;23;19904;-74
2023/03/25 06:47:59;;;;;;;;;;;;;;;-144.73;100.00;54510.31;6185503;23;19911;-73
2023/03/25 06:50:25;;;;;;;;;;;;;;;-144.73;100.00;54522.63;6214301;23;19983;-74
2023/03/25 06:52:50;;;;;;;;;;;;;;;-144.73;100.00;54543.16;6187837;23;19904;-73
2023/03/25 06:55:15;;;;;;;;;;;;;;;-144.73;100.00;54504.16;6188067;23;19939;-74
2023/03/25 06:57:42;;;;;;;;;;;;;;;-144.73;100.00;54526.75;6188157;23;19958;-74
2023/03/25 07:00:08;;;;;;;;;;;;;;;-144.73;100.00;54493.91;6187367;23;20369;-74
2023/03/25 07:02:33;;;;;;;;;;;;;;;-144.73;100.00;54489.81;6215306;23;19904;-74
2023/03/25 07:04:58;;;;;;;;;;;;;;;-144.73;100.00;54518.53;6187603;23;20290;-74
2023/03/25 07:07:24;;;;;;;;;;;;;;;-144.73;100.00;54512.38;6213777;23;19904;-74
2023/03/25 07:09:50;;;;;;;;;;;;;;;-144.73;100.00;54491.84;6213443;23;19911;-74
2023/03/25 07:12:15;;;;;;;;;;;;;;;-144.73;100.00;54506.22;6215055;23;19904;-79
2023/03/25 07:14:41;;;;;;;;;;;;;;;-144.73;100.00;54539.06;6213587;23;19975;-76
2023/03/25 07:17:07;;;;;;;;;;;;;;;-144.73;100.00;54477.47;6213423;23;19911;-77
2023/03/25 07:19:32;;;;;;;;;;;;;;;-144.73;100.00;54506.22;6188285;23;19915;-77
2023/03/25 07:21:57;;;;;;;;;;;;;;;-144.73;100.00;54518.53;6214966;23;20023;-78
2023/03/25 07:24:23;;;;;;;;;;;;;;;-144.73;100.00;54491.84;6214028;23;19908;-77
2023/03/25 07:26:48;;;;;;;;;;;;;;;-144.73;100.00;54491.84;6214755;23;19904;-77
2023/03/25 07:29:13;;;;;;;;;;;;;;;-144.73;100.00;54539.06;6187636;23;19908;-70
2023/03/25 07:31:40;;;;;;;;;;;;;;;-144.73;100.00;54514.44;6214516;23;19983;-70
2023/03/25 07:34:07;;;;;;;;;;;;;;;-144.73;100.00;54493.91;6214103;23;19948;-70
2023/03/25 07:36:32;;;;;;;;;;;;;;;-144.73;100.00;54524.69;6188481;23;19904;-69
2023/03/25 07:38:57;;;;;;;;;;;;;;;-144.73;100.00;54461.06;6187253;23;19915;-69
2023/03/25 07:41:25;;;;;;;;;;;;;;;-144.73;100.00;54539.06;6213309;23;19915;-69
2023/03/25 07:43:51;;;;;;;;;;;;;;;-144.73;100.00;54489.81;6187347;23;20367;-68
2023/03/25 07:46:16;;;;;;;;;;;;;;;-144.73;100.00;54485.69;6186626;23;19904;-67
2023/03/25 07:48:41;;;;;;;;;;;;;;;-144.73;99.75;54485.69;6213371;23;19959;-68
2023/03/25 07:51:07;;;;;;;;;;;;;;;-144.73;99.06;54514.44;6187074;23;19903;-67
2023/03/25 07:53:33;;;;;;;;;;;;;;;-144.73;98.99;54539.06;6186969;23;19958;-67
2023/03/25 07:55:58;;;;;;;;;;;;;;;-144.73;97.95;54512.38;6186985;23;19947;-68
2023/03/25 07:58:23;;;;;;;;;;;;;;;-144.73;97.12;54506.22;6186426;23;19931;-67
2023/03/25 08:00:48;;;;;;;;;;;;;;;-144.73;97.13;54539.06;6212363;23;19907;-68
2023/03/25 08:03:14;;;;;;;;;;;;;;;-144.73;96.77;54518.53;6186392;23;19915;-68
2023/03/25 08:05:46;;;;;;;;;;;;;;;-144.73;95.46;54522.63;6185934;23;19912;-68
2023/03/25 08:08:13;;;;;;;;;;;;;;;-144.73;95.76;54514.44;6186425;23;19908;-68
2023/03/25 08:10:41;;;;;;;;;;;;;;;-144.73;95.37;54514.44;6212810;23;19908;-67
2023/03/25 08:13:06;;;;;;;;;;;;;;;-144.73;96.42;54604.75;6213248;23;19919;-67
2023/03/25 08:15:32;;;;;;;;;;;;;;;-144.73;95.03;54477.47;6186172;23;19903;-67
2023/03/25 08:17:57;;;;;;;;;;;;;;;-144.73;95.16;54502.13;6211225;23;19983;-68
2023/03/25 08:20:23;;;;;;;;;;;;;;;-144.73;93.72;54481.59;6213944;23;19908;-67
2023/03/25 08:22:48;;;;;;;;;;;;;;;-144.73;93.49;54477.47;6188462;23;19943;-67
2023/03/25 08:25:14;;;;;;;;;;;;;;;-144.73;94.15;54506.22;6211487;23;19908;-67
2023/03/25 08:27:40;;;;;;;;;;;;;;;-144.73;94.58;54502.13;6214527;23;19907;-67
2023/03/25 08:30:09;;;;;;;;;;;;;;;-144.73;94.07;54510.31;6213011;23;19919;-68
2023/03/25 08:32:37;;;;;;;;;;;;;;;-144.73;93.89;54485.69;6186707;23;19904;-67
2023/03/25 08:35:04;;;;;;;;;;;;;;;-144.73;91.89;54481.59;6187128;23;19912;-68
2023/03/25 08:37:34;;;;;;;;;;;;;;;-144.73;92.59;54524.69;6186757;23;19907;-68
2023/03/25 08:40:00;;;;;;;;;;;;;;;-144.73;92.11;54481.59;6187443;23;19908;-68
2023/03/25 08:42:25;;;;;;;;;;;;;;;-144.73;92.05;54506.22;6187574;23;19933;-68
2023/03/25 08:44:51;;;;;;;;;;;;;;;-144.73;91.74;54530.84;6186792;23;19950;-68
2023/03/25 08:47:16;;;;;;;;;;;;;;;-144.73;91.23;54551.38;6187877;23;19918;-68
2023/03/25 08:49:41;;;;;;;;;;;;;;;-144.73;91.45;54510.31;6185705;23;19911;-68
2023/03/25 08:52:07;;;;;;;;;;;;;;;-144.73;92.39;54514.44;6187841;23;19904;-68
2023/03/25 08:54:33;;;;;;;;;;;;;;;-144.73;92.61;54510.31;6213680;23;19912;-68
2023/03/25 08:56:58;;;;;;;;;;;;;;;-144.73;92.50;54526.75;6187983;23;19978;-68
2023/03/25 08:59:24;;;;;;;;;;;;;;;-144.73;93.32;54514.44;6187288;23;20034;-68
2023/03/25 09:01:49;;;;;;;;;;;;;;;-144.73;94.42;54465.16;6187421;23;19973;-68
2023/03/25 09:04:14;;;;;;;;;;;;;;;-144.73;95.41;54510.31;6186815;23;19970;-67
2023/03/25 09:06:40;;;;;;;;;;;;;;;-144.73;97.46;54502.13;6188179;23;19908;-67
2023/03/25 09:09:05;;;;;;;;;;;;;;;-144.73;97.95;54498.00;6186610;23;19907;-67
2023/03/25 09:11:31;;;;;;;;;;;;;;;-144.73;95.79;54514.44;6213907;23;20346;-67
2023/03/25 09:13:56;;;;;;;;;;;;;;;-144.73;94.73;54543.16;6186622;23;19907;-66
2023/03/25 09:16:22;;;;;;;;;;;;;;;-144.73;96.66;54493.91;6188272;23;19910;-68
2023/03/25 09:18:47;;;;;;;;;;;;;;;-144.73;95.71;54508.28;6186700;23;19931;-67
2023/03/25 09:21:12;;;;;;;;;;;;;;;-144.73;97.45;54506.22;6183920;23;19919;-68
2023/03/25 09:23:38;;;;;;;;;;;;;;;-144.73;96.91;54500.06;6174203;23;19911;-68
2023/03/25 09:26:04;;;;;;;;;;;;;;;-144.73;97.64;54512.38;6182071;23;19903;-68
2023/03/25 09:28:29;;;;;;;;;;;;;;;-144.73;98.21;54514.44;6206428;23;19912;-69
2023/03/25 09:30:55;;;;;;;;;;;;;;;-144.73;98.43;54475.44;6181797;23;19907;-68
2023/03/25 09:33:20;;;;;;;;;;;;;;;-144.73;98.76;54530.84;6203378;23;19973;-69
2023/03/25 09:35:46;;;;;;;;;;;;;;;-144.73;99.19;54506.22;6179181;23;20323;-69
2023/03/25 09:38:12;;;;;;;;;;;;;;;-144.73;98.54;54604.75;6179971;23;19908;-69
2023/03/25 09:40:40;;;;;;;;;;;;;;;-144.73;99.35;54489.81;6206297;23;20006;-69
2023/03/25 09:43:11;;;;;;;;;;;;;;;-144.73;97.00;54539.06;6180423;23;19904;-69
2023/03/25 09:45:47;;;;;;;;;;;;;;;-144.73;97.26;54510.31;6181135;23;20003;-69
2023/03/25 09:48:15;;;;;;;;;;;;;;;-144.73;98.49;54547.28;6206725;23;19981;-70
2023/03/25 09:50:42;;;;;;;;;;;;;;;-144.73;98.42;54518.53;6179864;23;19931;-70
2023/03/25 09:53:17;;;;;;;;;;;;;;;-144.73;97.83;54514.44;6180677;23;19908;-69
2023/03/25 09:55:46;;;;;;;;;;;;;;;-144.73;97.10;54514.44;6181192;23;20323;-69
2023/03/25 09:58:17;;;;;;;;;;;;;;;-144.73;97.43;54502.13;6206176;23;19915;-69
2023/03/25 10:00:43;;;;;;;;;;;;;;;-144.73;96.66;54498.00;6204898;23;19939;-69
2023/03/25 10:03:17;;;;;;;;;;;;;;;-144.73;96.51;54539.06;6180639;23;19930;-69
2023/03/25 10:05:57;;;;;;;;;;;;;;;-144.73;96.70;54498.00;6180981;23;19907;-69
2023/03/25 10:08:51;;;;;;;;;;;;;;;-144.73;96.10;54539.06;6180363;23;19944;-68
2023/03/25 10:11:22;;;;;;;;;;;;;;;-144.73;95.50;54487.75;6073482;23;19906;-68
2023/03/25 10:13:51;;;;;;;;;;;;;;;-144.73;96.57;54547.28;6180926;23;19912;-68
2023/03/25 10:16:25;;;;;;;;;;;;;;;-144.73;94.59;54522.63;6180863;23;19911;-68
2023/03/25 10:19:12;;;;;;;;;;;;;;;-144.73;93.83;54461.06;6206479;23;19908;-68
2023/03/25 10:21:44;;;;;;;;;;;;;;;-144.73;92.60;54493.91;6207881;23;19908;-68
2023/03/25 10:24:09;;;;;;;;;;;;;;;-144.73;93.79;54469.28;6174293;23;19931;-68
2023/03/25 10:26:48;;;;;;;;;;;;;;;-144.73;93.34;54512.38;6148320;23;19918;-68
2023/03/25 10:29:21;;;;;;;;;;;;;;;-144.73;93.17;54524.69;6179935;23;19966;-67
2023/03/25 10:31:51;;;;;;;;;;;;;;;-144.73;92.38;54481.59;6206019;23;19977;-68
2023/03/25 10:34:18;;;;;;;;;;;;;;;-144.73;91.67;54502.13;6179599;23;19906;-68
2023/03/25 10:36:49;;;;;;;;;;;;;;;-144.73;91.91;54514.44;6205767;23;20031;-68
2023/03/25 10:39:19;;;;;;;;;;;;;;;-144.73;89.21;54452.84;6180393;23;19919;-68
2023/03/25 10:41:48;;;;;;;;;;;;;;;-144.73;89.93;54500.06;6205871;23;19939;-68
2023/03/25 10:44:14;;;;;;;;;;;;;;;-144.73;90.12;54473.38;6179772;23;19904;-68
2023/03/25 10:46:47;;;;;;;;;;;;;;;-144.73;91.14;54506.22;6179018;23;19939;-68
2023/03/25 10:49:17;;;;;;;;;;;;;;;-144.73;89.49;54522.63;6180308;23;19907;-66
2023/03/25 10:51:44;;;;;;;;;;;;;;;-144.73;90.21;54530.84;6206598;23;19908;-68
2023/03/25 10:54:11;;;;;;;;;;;;;;;-144.73;88.38;54522.63;6180121;23;19950;-67
2023/03/25 10:56:46;;;;;;;;;;;;;;;-144.73;88.24;54510.31;6180562;23;19947;-67
2023/03/25 10:59:34;;;;;;;;;;;;;;;-144.73;87.06;54493.91;6179433;23;19915;-67
2023/03/25 11:02:02;;;;;;;;;;;;;;;-144.73;86.69;54502.13;6180795;23;19916;-70
2023/03/25 11:04:36;;;;;;;;;;;;;;;-144.73;86.71;54479.53;6206275;23;19908;-68
2023/03/25 11:07:06;;;;;;;;;;;;;;;-144.73;86.15;54522.63;6179370;23;20286;-69
2023/03/25 11:09:35;;;;;;;;;;;;;;;-144.73;86.14;54495.97;6216358;23;19946;-68
2023/03/25 11:12:03;;;;;;;;;;;;;;;-144.73;86.41;54526.75;6180565;23;19916;-69
2023/03/25 11:14:28;;;;;;;;;;;;;;;-144.73;85.31;54498.00;6179551;23;19911;-69
2023/03/25 11:17:04;;;;;;;;;;;;;;;-144.73;88.14;54498.00;6180696;23;19969;-68
2023/03/25 11:19:29;;;;;;;;;;;;;;;-144.73;89.93;54514.44;6180975;23;19910;-68
2023/03/25 11:21:57;;;;;;;;;;;;;;;-144.73;90.10;54539.06;6205692;23;19912;-68
2023/03/25 11:24:27;;;;;;;;;;;;;;;-144.73;89.50;54514.44;6206023;23;19931;-69
2023/03/25 11:26:52;;;;;;;;;;;;;;;-144.73;89.34;54477.47;6206245;23;19916;-68
2023/03/25 11:29:19;;;;;;;;;;;;;;;-144.73;88.34;54522.63;6178177;23;19907;-68
2023/03/25 11:31:54;;;;;;;;;;;;;;;-144.73;88.27;54526.75;6180126;23;20002;-67
2023/03/25 11:34:20;;;;;;;;;;;;;;;-144.73;90.24;54510.31;6206660;23;19940;-68
2023/03/25 11:36:57;;;;;;;;;;;;;;;-144.73;91.69;54489.81;6180837;23;20290;-68
2023/03/25 11:39:39;;;;;;;;;;;;;;;-144.73;93.32;54510.31;6181732;23;19942;-67
2023/03/25 11:42:12;;;;;;;;;;;;;;;-144.73;93.98;54508.28;6182808;23;19912;-67
2023/03/25 11:44:38;;;;;;;;;;;;;;;-144.73;94.23;54485.69;6207608;23;19904;-67
2023/03/25 11:47:05;;;;;;;;;;;;;;;-144.73;95.47;54493.91;6182276;23;19986;-68
2023/03/25 11:49:35;;;;;;;;;;;;;;;-144.73;93.11;54489.81;6183052;23;20042;-68
2023/03/25 11:52:04;;;;;;;;;;;;;;;-144.73;91.86;54485.69;6208377;23;19908;-68
2023/03/25 11:54:31;;;;;;;;;;;;;;;-144.73;93.54;54518.53;6182119;23;19914;-67
2023/03/25 11:56:56;;;;;;;;;;;;;;;-144.73;91.93;54506.22;6206513;23;19995;-67
2023/03/25 11:59:21;;;;;;;;;;;;;;;-144.73;92.38;54518.53;6180414;23;20334;-67
2023/03/25 12:01:48;;;;;;;;;;;;;;;-144.73;91.30;54512.38;6207136;23;19916;-67
2023/03/25 12:04:18;;;;;;;;;;;;;;;-144.73;91.52;54512.38;6182359;23;19927;-68
2023/03/25 12:06:51;;;;;;;;;;;;;;;-144.73;90.45;54514.44;6207504;23;19908;-68
2023/03/25 12:09:16;;;;;;;;;;;;;;;-144.73;90.00;54448.75;6203498;23;19907;-67
2023/03/25 12:11:49;;;;;;;;;;;;;;;-144.73;88.87;54489.81;6177791;23;20357;-67
2023/03/25 12:14:33;;;;;;;;;;;;;;;-144.73;87.79;54510.31;6178441;23;19907;-67
2023/03/25 12:17:07;;;;;;;;;;;;;;;-144.73;88.99;54510.31;6182607;23;19923;-68
2023/03/25 12:19:52;;;;;;;;;;;;;;;-144.73;90.04;54506.22;6181783;23;19920;-68
2023/03/25 12:22:32;;;;;;;;;;;;;;;-144.73;89.73;54516.47;6181955;23;19986;-68
2023/03/25 12:25:07;;;;;;;;;;;;;;;-144.73;88.49;54510.31;6179768;23;19974;-67
2023/03/25 12:27:32;;;;;;;;;;;;;;;-144.73;89.65;54489.81;6181859;23;19904;-67
2023/03/25 12:30:00;;;;;;;;;;;;;;;-144.73;90.72;54539.06;6179965;23;20394;-67
2023/03/25 12:32:43;;;;;;;;;;;;;;;-144.73;89.89;54481.59;6179940;23;19910;-68